Database: COMPET-N - COOP - 3PL - 4PL - CNDOOM

WAD: Doom | Doom 2 | TNT | Plutonia | AV | HR | Scythe | MM | MM2 | Requiem | CE
Category: speed | nmare | max | nm100s | tyson | pacifist | fast | respawn | nomo | misc | built | all
Highscore: ALL | IWAD | PWAD | Country | Continent

< Previous map       Next map >
Remove: wad | map | category | player | allE2M4
MapPlayerTimeDateFilenameCommentsDL
E2M4: Deimos LabAdam Hegyi39.002001-04-16e2m4-039.zip - 253
E2M4: Deimos LabAdam Hegyi40.001999-06-03e2m4-040.zip - 150
E2M4: Deimos LabAdam Hegyi42.001998-10-11e2m4-042.zip - 151
E2M4: Deimos LabThomas Pilger43.001998-03-28e2m4-043.zip - 125
E2M4: Deimos LabDaniel Lindgren44.001996-11-12e2m4-044.zip - 151
E2M4: Deimos LabWade Cayton46.001996-04-04e2m4-046.zip - 84
E2M4: Deimos LabTerry Dunphy49.001996-03-27e2m4-049.zip - 93
E2M4: Deimos LabIstvan Pataki50.001996-04-25e2m4-050.zip - 121
E2M4: Deimos LabJonathan Weeks1:15.001995-06-29e2m4-115.zip - 67
E2M4: Deimos LabEelco de Vries1:16.001995-08-03e2m4-116.zip - 68
E2M4: Deimos LabEelco de Vries1:43.001995-06-07e2m4-143.zip - 73
E2M4: Deimos LabJonathan Matthies2:29.001994-12-07e2m4-229.zip - 173
E2M4: Deimos LabAdam Hegyi40.002001-04-17n2m4-040.zip - 243
E2M4: Deimos LabAdam Hegyi41.002000-03-03n2m4-041.zip - 125
E2M4: Deimos LabJonathan Rimmer43.001998-11-04n2m4-043.zip - 353
E2M4: Deimos LabAdam Hegyi44.001998-12-25n2m4-044.zip - 134
E2M4: Deimos LabThomas Pilger47.001998-03-28n2m4-047.zip - 119
E2M4: Deimos LabIlya Britvich53.001997-08-07n2m4-053.zip - 120
E2M4: Deimos LabPeo Sjoblom59.001997-07-03n2m4-059.zip - 113
E2M4: Deimos LabJim Leonard4:11.002006-03-16e2m4-411.zip - 285
E2M4: Deimos LabRadek Pecka4:25.002003-06-23e2m4-425.zip - 116
E2M4: Deimos LabJim Leonard4:28.002003-05-26e2m4-428.zip - 168
E2M4: Deimos LabRadek Pecka4:31.002001-12-28e2m4-431.zip - 121
E2M4: Deimos LabOle Hartvigsen4:46.002001-12-24e2m4-446.zip - 251
E2M4: Deimos LabRadek Pecka4:51.002000-11-18e2m4-451.zip - 122
E2M4: Deimos LabAnders Johnsen4:58.001998-09-14e2m4-458.zip - 114
E2M4: Deimos LabPeo Sjoblom5:24.001997-08-06e2m4-524.zip - 89
E2M4: Deimos LabYonatan Donner6:07.001997-02-05e2m4-607.zip - 87
E2M4: Deimos LabKai-Uwe Humpert7:14.001996-05-16e2m4-714.zip - 114
E2M4: Deimos LabYonatan Donner7:33.001996-05-30e2m4-733.zip - 81
E2M4: Deimos LabEelco de Vries8:55.001995-07-13e2m4-855.zip - 73
E2M4: Deimos LabEelco de Vries9:42.001995-05-25e2m4-942.zip - 71
E2M4: Deimos LabEelco de Vries11:04.001995-04-15e24-1104.zip - 81
E2M4: Deimos LabRadek Pecka1:42.002002-05-05n2s4-142.zip - 239
E2M4: Deimos LabAdam Hegyi1:48.001999-06-21n2s4-148.zip - 127
E2M4: Deimos LabAdam Hegyi1:51.001999-06-20n2s4-151.zip - 118
E2M4: Deimos LabAdam Williamson1:58.001999-06-20n2s4-158.zip - 153
E2M4: Deimos LabAdam Hegyi1:59.001999-06-20n2s4-159.zip - 113
E2M4: Deimos LabRadek Pecka3:46.002003-12-21t2m4-346.zip - 246
E2M4: Deimos LabJim Leonard3:52.002003-05-26t2m4-352.zip - 146
E2M4: Deimos LabRadek Pecka3:54.002002-12-02t2m4-354.zip - 124
E2M4: Deimos LabJim Leonard4:00.002002-06-09t2m4-400.zip - 157
E2M4: Deimos LabRadek Pecka4:07.002002-02-25t2m4-407.zip - 119
E2M4: Deimos LabDrew DeVore4:18.002002-02-22t2m4-418.zip - 137
E2M4: Deimos LabJim Leonard4:43.002002-02-21t2m4-443.zip - 134
E2M4: Deimos LabRadek Pecka4:45.002000-11-17t2m4-445.zip - 121
E2M4: Deimos LabAnders Johnsen5:05.001999-03-07t2m4-505.zip - 106
E2M4: Deimos LabPatrick Martin7:46.001997-05-31t2m4-746.zip - 73
E2M4: Deimos LabAdam Hegyi41.002001-05-10p2m4-041.zip - 223
E2M4: Deimos LabAdam Williamson44.001999-06-13p2m4-044.zip - 143
E2M4: Deimos LabAdam Williamson45.001999-05-24p2m4-045.zip - 125
E2M4: Deimos LabAndy Badorek48.001998-02-01p2m4-048.zip - 89
E2M4: Deimos LabRobert J. Reevy1:09.001997-11-01p2m4-109.zip - 84
E2M4: Deimos LabRadek Pecka5:04.002003-06-23f2m4-504.zip - 218
E2M4: Deimos LabJim Leonard5:19.002003-05-26f2m4-519.zip - 188
E2M4: Deimos LabRadek Pecka5:33.002002-06-09f2m4-533.zip - 130
E2M4: Deimos LabJim Leonard5:43.002002-05-21f2m4-543.zip - 191
E2M4: Deimos LabRadek Pecka5:45.002001-09-19f2m4-545.zip - 116
E2M4: Deimos LabAnders Johnsen6:03.001999-04-04f2m4-603.zip - 101
E2M4: Deimos LabAnders Johnsen6:39.001998-09-14f2m4-639.zip - 96
E2M4: Deimos LabM. Phoenix Dailey3:43.002012-02-17r2m4-343.zip - 592
E2M4: Deimos LabRadek Pecka3:48.002000-08-26r2m4-348.zip - 108
E2M4: Deimos LabSteffen Udluft4:18.001998-07-21r2m4-418.zip - 109
E2M4: Deimos LabArno Slagboom42.512000-05-03u2404251.zip - 229
Remove: wad | map | category | player | all